Time;durP1;ratioP1;P1;durP2;ratioP2;P2;SDS_P1;SDS_P2;PMS_P1;PMS_P2;Temp;Humidity;BMP_temperature;BMP_pressure;BME280_temperature;BME280_humidity;BME280_pressure;Samples;Min_cycle;Max_cycle;Signal;HPM_P1;HPM_P2
2021/11/12 00:15:00;;;;;;;26.83;19.60;;;;;;;0.31;100.00;96700.25;5029349;28;20456;-74
2021/11/12 00:17:30;;;;;;;27.10;19.13;;;;;;;0.25;100.00;96695.44;5021754;28;20467;-73
2021/11/12 00:19:57;;;;;;;27.83;20.23;;;;;;;0.29;100.00;96696.91;5029698;28;20037;-73
2021/11/12 00:22:24;;;;;;;29.43;21.13;;;;;;;0.22;100.00;96695.59;5022527;28;20553;-73
2021/11/12 00:24:53;;;;;;;28.10;20.17;;;;;;;0.15;100.00;96694.25;5009525;28;20460;-73
2021/11/12 00:27:20;;;;;;;27.00;19.50;;;;;;;0.15;100.00;96700.25;5017399;28;20516;-74
2021/11/12 00:30:03;;;;;;;30.30;20.30;;;;;;;0.13;100.00;96696.91;5017163;28;20529;-73
2021/11/12 00:32:51;;;;;;;29.00;21.03;;;;;;;0.14;100.00;96692.59;5011817;28;20905;-73
2021/11/12 00:37:54;;;;;;;30.83;20.23;;;;;;;0.15;100.00;96697.69;5011389;28;20483;-73
2021/11/12 00:40:48;;;;;;;28.17;21.60;;;;;;;0.12;100.00;96687.50;5028665;28;21113;-73
2021/11/12 00:43:12;;;;;;;33.17;22.63;;;;;;;0.14;100.00;96693.44;5034021;28;20476;-74
2021/11/12 00:45:48;;;;;;;36.77;23.77;;;;;;;0.09;100.00;96685.06;5029211;28;20427;-73
2021/11/12 00:48:21;;;;;;;35.97;24.70;;;;;;;0.08;100.00;96692.94;5026184;28;20492;-73
2021/11/12 00:55:45;;;;;;;39.33;26.47;;;;;;;0.00;100.00;96685.59;5035823;28;20033;-73
2021/11/12 00:58:15;;;;;;;39.53;26.27;;;;;;;0.03;100.00;96680.25;5037327;28;20458;-73
2021/11/12 01:00:42;;;;;;;36.70;24.83;;;;;;;-0.07;100.00;96681.66;5034096;28;20516;-73
2021/11/12 01:03:08;;;;;;;38.27;25.67;;;;;;;-0.11;100.00;96680.16;5012105;28;21331;-73
2021/11/12 01:05:33;;;;;;;36.83;24.40;;;;;;;-0.11;100.00;96686.16;4999348;28;20492;-73
2021/11/12 01:08:00;;;;;;;38.63;25.10;;;;;;;-0.16;100.00;96674.41;5004957;28;20463;-73
2021/11/12 01:10:28;;;;;;;35.30;24.40;;;;;;;-0.21;100.00;96676.41;5009995;28;20037;-73
2021/11/12 01:12:57;;;;;;;34.77;24.47;;;;;;;-0.27;100.00;96677.56;5032291;28;20593;-73
2021/11/12 01:15:24;;;;;;;42.40;25.90;;;;;;;-0.33;100.00;96675.31;5010989;28;20586;-73
2021/11/12 01:17:51;;;;;;;38.40;24.73;;;;;;;-0.35;100.00;96675.38;5010774;28;20452;-73
2021/11/12 01:20:18;;;;;;;34.47;24.00;;;;;;;-0.36;100.00;96672.91;5010985;28;20538;-73
2021/11/12 01:22:45;;;;;;;35.93;25.27;;;;;;;-0.36;100.00;96673.72;5004956;28;20531;-73
2021/11/12 01:25:13;;;;;;;36.97;26.50;;;;;;;-0.38;100.00;96669.56;5011841;28;20832;-73
2021/11/12 01:27:41;;;;;;;42.03;25.07;;;;;;;-0.42;100.00;96658.53;5010560;28;20468;-73
2021/11/12 01:30:09;;;;;;;38.67;25.27;;;;;;;-0.46;100.00;96664.78;5028605;28;21043;-73
2021/11/12 01:32:35;;;;;;;37.30;25.67;;;;;;;-0.51;100.00;96659.84;5017955;28;20456;-74
2021/11/12 01:35:01;;;;;;;35.23;25.30;;;;;;;-0.53;100.00;96655.72;5027916;28;20459;-73
2021/11/12 01:37:29;;;;;;;43.17;26.47;;;;;;;-0.49;100.00;96652.03;5028250;28;20033;-73
2021/11/12 01:39:58;;;;;;;38.87;26.20;;;;;;;-0.51;100.00;96643.53;5010438;28;20453;-73
2021/11/12 01:42:28;;;;;;;36.07;24.70;;;;;;;-0.58;100.00;96649.94;5027617;28;20976;-73
2021/11/12 01:45:05;;;;;;;34.43;23.60;;;;;;;-0.57;100.00;96651.59;5012218;28;20928;-73
2021/11/12 01:48:09;;;;;;;34.77;23.40;;;;;;;-0.65;100.00;96646.00;5044419;28;20507;-73
2021/11/12 01:50:23;;;;;;;37.53;24.33;;;;;;;-0.63;100.00;96639.03;5036211;28;20467;-73
2021/11/12 01:52:51;;;;;;;36.47;25.97;;;;;;;-0.64;100.00;96642.50;5031189;28;20459;-73
2021/11/12 01:55:43;;;;;;;39.03;26.40;;;;;;;-0.55;100.00;96631.69;5030906;28;20459;-73
2021/11/12 01:58:50;;;;;;;42.20;26.67;;;;;;;-0.48;100.00;96627.88;5016979;28;20528;-73
2021/11/12 02:00:52;;;;;;;46.17;29.23;;;;;;;-0.39;100.00;96621.38;5002660;28;20479;-73
2021/11/12 02:03:18;;;;;;;44.13;28.40;;;;;;;-0.33;100.00;96621.88;5008565;28;20467;-73
2021/11/12 02:05:44;;;;;;;41.70;29.27;;;;;;;-0.36;100.00;96611.72;5033723;28;20037;-73
2021/11/12 02:08:10;;;;;;;46.17;31.13;;;;;;;-0.32;100.00;96613.22;5011822;28;20029;-73
2021/11/12 02:10:36;;;;;;;46.07;29.27;;;;;;;-0.30;100.00;96603.63;5028718;28;20499;-73
2021/11/12 02:13:11;;;;;;;47.70;30.30;;;;;;;-0.28;100.00;96600.94;5028300;28;20510;-73
2021/11/12 02:15:39;;;;;;;48.00;29.50;;;;;;;-0.35;100.00;96600.44;5028034;28;20441;-73
2021/11/12 02:18:27;;;;;;;38.33;26.40;;;;;;;-0.31;100.00;96595.94;4994168;28;20568;-74
2021/11/12 02:21:02;;;;;;;39.93;27.50;;;;;;;-0.30;100.00;96598.47;5038928;28;20489;-73
2021/11/12 02:23:36;;;;;;;40.90;27.87;;;;;;;-0.32;100.00;96596.88;5034760;28;20464;-73
2021/11/12 02:26:03;;;;;;;44.43;27.10;;;;;;;-0.30;100.00;96600.22;5035851;28;20451;-73
2021/11/12 02:28:30;;;;;;;39.53;26.53;;;;;;;-0.36;100.00;96598.78;5032391;28;20454;-73
2021/11/12 02:30:56;;;;;;;34.77;24.87;;;;;;;-0.43;100.00;96600.03;5032145;28;20495;-73
2021/11/12 02:33:25;;;;;;;39.90;26.70;;;;;;;-0.45;100.00;96601.88;5031881;28;20502;-73
2021/11/12 02:36:05;;;;;;;37.50;24.57;;;;;;;-0.36;100.00;96596.22;5014477;28;20127;-73
2021/11/12 02:38:34;;;;;;;39.83;24.83;;;;;;;-0.32;100.00;96591.69;5035874;28;20475;-73
2021/11/12 02:40:59;;;;;;;35.83;24.67;;;;;;;-0.29;100.00;96599.28;5037276;28;20436;-73
2021/11/12 02:43:26;;;;;;;38.60;25.83;;;;;;;-0.26;100.00;96601.72;5008281;28;20529;-73
2021/11/12 02:45:52;;;;;;;36.87;24.70;;;;;;;-0.26;100.00;96592.19;5033843;28;20658;-73
2021/11/12 02:48:19;;;;;;;34.37;23.57;;;;;;;-0.21;100.00;96588.53;5031740;28;20473;-73
2021/11/12 02:50:44;;;;;;;35.57;23.43;;;;;;;-0.20;100.00;96590.19;5031873;28;21023;-73
2021/11/12 02:53:14;;;;;;;32.13;23.03;;;;;;;-0.16;100.00;96591.69;5020728;28;20534;-74
2021/11/12 02:55:41;;;;;;;30.83;22.37;;;;;;;-0.17;100.00;96587.44;5031912;28;20553;-73
2021/11/12 02:58:07;;;;;;;29.37;21.20;;;;;;;-0.22;100.00;96579.13;5027342;28;20543;-73
2021/11/12 03:00:36;;;;;;;31.90;22.97;;;;;;;-0.24;100.00;96587.75;5032386;28;20475;-73
2021/11/12 03:03:02;;;;;;;33.77;21.53;;;;;;;-0.21;100.00;96591.09;5013777;28;20467;-73
2021/11/12 03:05:30;;;;;;;35.53;24.50;;;;;;;-0.19;100.00;96592.69;5031710;28;20538;-73
2021/11/12 03:07:56;;;;;;;29.70;21.67;;;;;;;-0.18;100.00;96588.34;5014666;28;20494;-73
2021/11/12 03:10:22;;;;;;;30.93;21.57;;;;;;;-0.27;100.00;96593.13;5031542;28;20832;-73
2021/11/12 03:12:48;;;;;;;32.53;22.73;;;;;;;-0.27;100.00;96605.19;5014731;28;20056;-73
2021/11/12 03:15:14;;;;;;;30.57;21.60;;;;;;;-0.37;100.00;96591.09;5031051;28;20029;-73
2021/11/12 03:17:41;;;;;;;34.23;23.00;;;;;;;-0.35;100.00;96590.13;5026001;28;20454;-73
2021/11/12 03:20:11;;;;;;;37.50;24.40;;;;;;;-0.38;100.00;96587.69;5024132;28;20029;-73
2021/11/12 03:22:42;;;;;;;40.23;26.57;;;;;;;-0.50;100.00;96588.38;5031150;28;20460;-73
2021/11/12 03:25:13;;;;;;;36.77;24.23;;;;;;;-0.46;100.00;96589.88;5033896;28;20444;-73
2021/11/12 04:00:43;;;;;;;34.63;24.43;;;;;;;-0.92;100.00;96607.81;5040440;28;20432;-75
2021/11/12 05:52:00;;;;;;;331.17;40.70;;;;;;;-1.35;100.00;96585.94;5020630;28;20919;-73
2021/11/12 05:57:12;;;;;;;245.03;34.30;;;;;;;-1.39;100.00;96582.69;5013581;28;20551;-73
2021/11/12 05:59:38;;;;;;;358.87;41.60;;;;;;;-1.43;100.00;96576.03;4997343;28;20460;-73
2021/11/12 06:02:07;;;;;;;210.13;32.97;;;;;;;-1.44;100.00;96564.88;4989253;28;20479;-72
2021/11/12 06:04:34;;;;;;;123.87;31.13;;;;;;;-1.32;100.00;96563.41;5004319;28;20834;-72
2021/11/12 06:07:00;;;;;;;239.30;33.77;;;;;;;-1.37;100.00;96560.22;5014992;28;20915;-73
2021/11/12 06:09:26;;;;;;;172.30;32.17;;;;;;;-1.34;100.00;96564.38;5021054;28;20484;-73
2021/11/12 06:11:56;;;;;;;315.23;39.83;;;;;;;-1.28;100.00;96569.22;5013410;28;20510;-73
2021/11/12 06:14:23;;;;;;;81.73;26.73;;;;;;;-1.28;100.00;96569.22;5036149;28;20033;-72
2021/11/12 06:16:49;;;;;;;100.90;27.27;;;;;;;-1.30;100.00;96571.91;5013693;28;20607;-72
2021/11/12 06:19:16;;;;;;;230.67;37.70;;;;;;;-1.39;100.00;96572.38;5029494;28;20554;-72
2021/11/12 06:21:43;;;;;;;148.50;29.40;;;;;;;-1.35;100.00;96573.03;5035132;28;20034;-72
2021/11/12 06:24:10;;;;;;;172.90;30.97;;;;;;;-1.32;100.00;96563.41;5018350;28;20482;-73
2021/11/12 06:26:36;;;;;;;72.27;26.73;;;;;;;-1.28;100.00;96575.22;5015056;28;20456;-73
2021/11/12 06:29:02;;;;;;;301.97;39.30;;;;;;;-1.38;100.00;96574.03;5034127;28;20518;-72
2021/11/12 06:31:28;;;;;;;209.17;35.77;;;;;;;-1.35;100.00;96573.03;5036542;28;20447;-73
2021/11/12 06:33:54;;;;;;;64.80;26.10;;;;;;;-1.31;100.00;96570.25;5013146;28;21130;-73
2021/11/12 06:36:21;;;;;;;310.07;42.33;;;;;;;-1.36;100.00;96572.22;5013237;28;20065;-73
2021/11/12 06:38:48;;;;;;;153.77;31.07;;;;;;;-1.36;100.00;96572.22;5003930;28;20454;-73
2021/11/12 06:41:15;;;;;;;234.57;34.47;;;;;;;-1.41;100.00;96563.84;5037811;28;20487;-73
2021/11/12 06:44:08;;;;;;;219.73;37.53;;;;;;;-1.39;100.00;96562.03;5020595;28;20470;-73
2021/11/12 06:49:22;;;;;;;231.97;36.23;;;;;;;-1.41;100.00;96569.00;5027924;28;20453;-73
2021/11/12 06:51:48;;;;;;;116.60;29.63;;;;;;;-1.33;100.00;96566.91;5029980;28;20460;-73
2021/11/12 06:54:14;;;;;;;93.13;30.83;;;;;;;-1.27;100.00;96571.75;4996592;28;20487;-73
2021/11/12 06:56:40;;;;;;;133.07;30.80;;;;;;;-1.23;100.00;96570.66;5033126;28;20495;-73
2021/11/12 06:59:05;;;;;;;203.60;35.87;;;;;;;-1.22;100.00;96574.91;5007092;28;20387;-73
2021/11/12 07:01:31;;;;;;;180.80;33.43;;;;;;;-1.23;100.00;96581.00;5015959;28;20035;-73
2021/11/12 07:03:58;;;;;;;192.90;36.20;;;;;;;-1.17;100.00;96576.41;5014739;28;20118;-73
2021/11/12 07:06:25;;;;;;;112.80;30.73;;;;;;;-1.19;100.00;96574.75;5006421;28;20217;-72
2021/11/12 07:08:52;;;;;;;209.27;36.77;;;;;;;-1.22;100.00;96576.66;5017964;28;20455;-73
2021/11/12 07:11:18;;;;;;;130.40;31.87;;;;;;;-1.16;100.00;96578.94;5022645;28;20545;-73
2021/11/12 07:13:44;;;;;;;130.17;32.73;;;;;;;-1.13;100.00;96572.78;5020801;28;20458;-73
2021/11/12 07:16:10;;;;;;;280.93;43.37;;;;;;;-1.11;100.00;96570.94;5046032;28;20467;-73
2021/11/12 07:18:36;;;;;;;227.47;39.53;;;;;;;-1.15;100.00;96579.75;5041328;28;21042;-72
2021/11/12 07:21:02;;;;;;;81.37;31.80;;;;;;;-1.05;100.00;96581.78;5021655;28;20033;-72
2021/11/12 07:23:28;;;;;;;316.00;47.37;;;;;;;-1.05;100.00;96578.38;5021313;28;20064;-72
2021/11/12 07:25:55;;;;;;;135.47;33.60;;;;;;;-0.88;100.00;96583.47;5037949;28;20054;-72
2021/11/12 07:28:25;;;;;;;78.00;30.27;;;;;;;-0.86;100.00;96579.09;5057149;28;20438;-72
2021/11/12 07:30:54;;;;;;;79.80;30.63;;;;;;;-0.73;100.00;96571.53;5031339;28;20536;-73
2021/11/12 07:33:21;;;;;;;355.20;47.17;;;;;;;-0.76;100.00;96575.09;5032099;28;20550;-73
2021/11/12 07:36:15;;;;;;;44.00;28.63;;;;;;;-0.63;100.00;96566.72;5038738;28;20552;-73
2021/11/12 07:49:04;;;;;;;110.73;34.23;;;;;;;-0.42;100.00;96565.53;5042369;28;20539;-72
2021/11/12 07:51:30;;;;;;;110.83;29.90;;;;;;;-0.56;100.00;96557.72;5009767;28;20597;-73
2021/11/12 07:53:56;;;;;;;112.27;31.50;;;;;;;-0.50;100.00;96552.22;5033168;28;20460;-73
2021/11/12 07:56:22;;;;;;;129.80;32.63;;;;;;;-0.42;100.00;96562.94;5031658;28;20030;-72
2021/11/12 07:58:48;;;;;;;42.13;24.70;;;;;;;-0.27;100.00;96550.91;5035106;28;20474;-73
2021/11/12 08:01:14;;;;;;;39.00;26.63;;;;;;;-0.22;100.00;96550.69;5013631;28;20555;-73
2021/11/12 08:03:41;;;;;;;38.73;26.67;;;;;;;-0.29;100.00;96553.59;5034378;28;20037;-72
2021/11/12 08:06:11;;;;;;;43.13;28.77;;;;;;;-0.11;100.00;96543.16;5016756;28;20540;-72
2021/11/12 08:08:38;;;;;;;48.93;30.77;;;;;;;-0.15;100.00;96547.66;5017798;28;21211;-73
2021/11/12 08:11:41;;;;;;;43.40;29.30;;;;;;;0.14;100.00;96547.78;5019621;28;20457;-72
2021/11/12 08:16:43;;;;;;;48.23;30.13;;;;;;;0.81;100.00;96538.66;5010631;28;20469;-72
2021/11/12 08:19:26;;;;;;;43.57;31.57;;;;;;;1.33;100.00;96525.09;5018038;28;21107;-73
2021/11/12 08:40:22;;;;;;;27.57;18.87;;;;;;;2.39;100.00;96501.91;5025717;28;20495;-73
2021/11/12 08:43:03;;;;;;;29.53;19.00;;;;;;;2.89;100.00;96505.44;5018902;28;20503;-73
2021/11/12 08:45:31;;;;;;;25.40;18.77;;;;;;;2.92;100.00;96506.06;5036581;28;20032;-73
2021/11/12 08:48:01;;;;;;;24.27;18.17;;;;;;;3.27;100.00;96503.59;5032605;28;21015;-73
2021/11/12 08:50:27;;;;;;;26.97;16.87;;;;;;;3.33;100.00;96498.94;5024700;28;20477;-73
2021/11/12 08:53:05;;;;;;;24.93;17.70;;;;;;;3.58;100.00;96495.41;5030698;28;20120;-74
2021/11/12 08:55:32;;;;;;;25.70;18.87;;;;;;;3.80;100.00;96495.53;5035887;28;20074;-74
2021/11/12 08:57:59;;;;;;;21.27;15.50;;;;;;;3.96;100.00;96488.28;5018624;28;20025;-74
2021/11/12 09:00:25;;;;;;;22.77;16.73;;;;;;;4.22;100.00;96475.09;5037239;28;20040;-74
2021/11/12 09:02:52;;;;;;;23.90;17.43;;;;;;;4.83;100.00;96475.69;5040847;28;20032;-73
2021/11/12 09:05:20;;;;;;;20.80;15.90;;;;;;;4.35;100.00;96478.44;5018115;28;20036;-73
2021/11/12 09:07:47;;;;;;;22.13;16.17;;;;;;;4.64;100.00;96483.25;5008803;28;20071;-74
2021/11/12 09:10:14;;;;;;;21.63;15.03;;;;;;;4.73;100.00;96483.38;5011960;28;20037;-74
2021/11/12 09:12:43;;;;;;;25.13;16.53;;;;;;;5.11;100.00;96474.38;5025958;28;20064;-74
2021/11/12 09:15:20;;;;;;;21.77;15.77;;;;;;;5.24;100.00;96483.84;5033655;28;20017;-74
2021/11/12 09:17:47;;;;;;;17.80;13.47;;;;;;;5.43;100.00;96484.91;5016293;28;20037;-73
2021/11/12 09:20:14;;;;;;;24.77;16.30;;;;;;;5.72;100.00;96484.34;5037337;28;20025;-74
2021/11/12 09:22:41;;;;;;;18.60;14.10;;;;;;;5.73;100.00;96491.22;5031985;28;20037;-73
2021/11/12 09:25:08;;;;;;;19.47;14.60;;;;;;;5.63;100.00;96485.06;5045188;28;20100;-73
2021/11/12 09:27:34;;;;;;;20.00;13.60;;;;;;;5.94;100.00;96480.06;5033812;28;20064;-73
2021/11/12 09:30:03;;;;;;;18.03;12.87;;;;;;;6.32;98.50;96472.50;5011214;28;20033;-73
2021/11/12 09:32:29;;;;;;;19.23;14.43;;;;;;;5.89;100.00;96475.16;5022437;28;20045;-73
2021/11/12 09:34:55;;;;;;;17.30;13.57;;;;;;;6.48;98.61;96466.84;5024898;28;20044;-73
2021/11/12 09:37:21;;;;;;;17.83;14.17;;;;;;;6.48;97.69;96466.00;5027380;28;20029;-73
2021/11/12 09:39:54;;;;;;;21.33;14.77;;;;;;;6.84;95.23;96462.06;5017081;28;20044;-73
2021/11/12 09:42:22;;;;;;;15.13;11.02;;;;;;;6.31;95.76;96468.25;5039593;28;20041;-73
2021/11/12 09:44:48;;;;;;;18.30;13.67;;;;;;;6.75;97.26;96452.41;5019467;28;20029;-72
2021/11/12 09:47:16;;;;;;;18.03;14.13;;;;;;;7.58;91.76;96453.94;5011058;28;20045;-72
2021/11/12 09:49:42;;;;;;;19.53;14.00;;;;;;;7.12;91.66;96465.78;5018602;28;20107;-73
2021/11/12 09:52:10;;;;;;;20.63;14.27;;;;;;;6.50;96.13;96466.69;5030774;28;20501;-72
2021/11/12 09:54:37;;;;;;;17.37;13.63;;;;;;;6.90;94.96;96461.53;5017024;28;20028;-73
2021/11/12 09:57:03;;;;;;;22.53;14.20;;;;;;;8.01;91.28;96471.88;5031759;28;20028;-73
2021/11/12 09:59:33;;;;;;;18.00;14.03;;;;;;;8.62;87.01;96467.31;5036268;28;20022;-73
2021/11/12 10:02:01;;;;;;;17.77;12.97;;;;;;;9.16;81.84;96450.84;5023354;28;20033;-73
2021/11/12 10:04:27;;;;;;;17.93;13.87;;;;;;;8.75;84.11;96449.44;5019891;28;20101;-73
2021/11/12 10:06:57;;;;;;;17.33;13.37;;;;;;;8.21;88.33;96438.63;5012485;28;20116;-73
2021/11/12 10:09:22;;;;;;;19.20;13.27;;;;;;;7.38;92.64;96441.72;5026839;28;20064;-73
2021/11/12 10:11:54;;;;;;;18.40;14.33;;;;;;;7.63;92.66;96441.25;5036952;28;20025;-73
2021/11/12 10:17:14;;;;;;;22.77;14.77;;;;;;;7.85;90.44;96436.72;5033471;28;20092;-73
2021/11/12 10:19:48;;;;;;;22.17;13.67;;;;;;;8.65;85.74;96440.78;5020546;28;20032;-74
2021/11/12 10:22:21;;;;;;;18.70;13.47;;;;;;;7.72;90.69;96445.66;5032691;28;20053;-73
2021/11/12 10:24:46;;;;;;;;;;;;;;;9.53;83.76;96431.56;5038650;28;20112;-74
2021/11/12 10:27:14;;;;;;;16.80;12.20;;;;;;;10.10;80.47;96423.41;5014583;28;20016;-74
2021/11/12 10:30:07;;;;;;;19.30;14.13;;;;;;;9.52;81.50;96421.22;5019821;28;20041;-73
2021/11/12 10:32:34;;;;;;;19.27;13.13;;;;;;;9.52;82.57;96424.66;5038306;28;20501;-73
2021/11/12 10:35:08;;;;;;;17.53;13.37;;;;;;;9.99;81.62;96421.81;5045163;28;20531;-74
2021/11/12 10:37:36;;;;;;;18.80;12.87;;;;;;;9.06;84.09;96413.31;5030077;28;20026;-73
2021/11/12 10:40:06;;;;;;;18.83;13.80;;;;;;;9.03;82.15;96411.00;5010505;28;20033;-73
2021/11/12 10:42:38;;;;;;;19.57;14.40;;;;;;;8.35;87.85;96412.94;5019887;28;20030;-74
2021/11/12 10:45:21;;;;;;;16.93;13.30;;;;;;;8.65;87.75;96415.41;5022433;28;20060;-74
2021/11/12 10:47:58;;;;;;;15.07;10.93;;;;;;;8.39;87.42;96409.13;5015009;28;20033;-73
2021/11/12 10:50:30;;;;;;;19.10;14.50;;;;;;;7.85;92.54;96413.16;5042525;28;20041;-73
2021/11/12 10:53:07;;;;;;;21.00;16.03;;;;;;;8.88;87.26;96399.31;5016706;28;20040;-73
2021/11/12 10:55:35;;;;;;;17.50;13.87;;;;;;;8.03;89.55;96406.25;5030221;28;20024;-73
2021/11/12 10:58:13;;;;;;;20.53;14.17;;;;;;;8.41;88.79;96391.47;5044734;28;20044;-73
2021/11/12 11:00:47;;;;;;;20.47;14.23;;;;;;;7.66;90.54;96393.84;5006009;28;20110;-74
2021/11/12 11:03:22;;;;;;;19.63;13.53;;;;;;;8.19;88.16;96390.81;5005640;28;20041;-73
2021/11/12 11:05:58;;;;;;;21.20;15.33;;;;;;;7.83;90.07;96391.53;5024796;28;20041;-74
2021/11/12 11:08:26;;;;;;;21.90;14.27;;;;;;;8.01;89.75;96384.59;5012050;28;20034;-74
2021/11/12 11:10:57;;;;;;;21.13;14.93;;;;;;;7.84;91.63;96377.47;5017168;28;20037;-74
2021/11/12 11:13:30;;;;;;;18.80;14.87;;;;;;;8.55;87.86;96372.69;5029386;28;20546;-74
2021/11/12 11:16:08;;;;;;;16.40;11.53;;;;;;;8.44;88.06;96370.22;5033224;28;20026;-74
2021/11/12 11:21:33;;;;;;;19.53;14.17;;;;;;;8.07;88.03;96359.66;5004390;28;20033;-74
2021/11/12 11:24:10;;;;;;;22.37;16.23;;;;;;;8.95;86.21;96347.91;4996593;28;20084;-73
2021/11/12 11:26:41;;;;;;;19.17;14.83;;;;;;;8.88;88.12;96362.59;5017660;28;20045;-73
2021/11/12 11:29:10;;;;;;;19.17;14.20;;;;;;;8.95;85.81;96354.03;5038044;28;20044;-73
2021/11/12 11:31:36;;;;;;;18.07;13.40;;;;;;;9.02;85.53;96356.03;5039030;28;20033;-74
2021/11/12 11:34:04;;;;;;;21.30;14.30;;;;;;;8.83;87.91;96349.09;5033480;28;20057;-74
2021/11/12 11:36:32;;;;;;;18.97;13.60;;;;;;;9.25;84.63;96335.47;5017866;28;20029;-73
2021/11/12 11:39:02;;;;;;;19.73;14.43;;;;;;;9.39;82.25;96330.53;5039158;28;20551;-74
2021/11/12 11:41:28;;;;;;;17.50;13.57;;;;;;;9.12;84.83;96339.28;5046835;28;20548;-72
2021/11/12 11:43:57;;;;;;;21.00;14.43;;;;;;;8.97;85.64;96338.13;5029355;28;20022;-73
2021/11/12 11:46:25;;;;;;;18.47;14.03;;;;;;;9.29;84.15;96331.56;5025218;28;20052;-73
2021/11/12 11:48:52;;;;;;;21.57;14.50;;;;;;;8.85;86.88;96320.91;5009447;28;20055;-74
2021/11/12 11:51:56;;;;;;;19.33;14.47;;;;;;;8.57;87.98;96307.81;5030318;28;20443;-74
2021/11/12 11:54:23;;;;;;;;;;;;;;;9.10;87.50;96291.38;5019642;28;20557;-74
2021/11/12 11:56:51;;;;;;;20.60;14.53;;;;;;;8.89;87.16;96296.91;5023048;28;20016;-75
2021/11/12 11:59:29;;;;;;;22.50;16.20;;;;;;;9.24;85.56;96291.84;5037199;28;20053;-74
2021/11/12 12:01:57;;;;;;;20.27;15.27;;;;;;;9.52;84.37;96287.31;5038635;28;20032;-76
2021/11/12 12:04:24;;;;;;;19.33;14.60;;;;;;;9.73;84.24;96293.09;5046069;28;20021;-74
2021/11/12 12:07:02;;;;;;;18.37;13.80;;;;;;;9.56;82.93;96292.13;5042089;28;20037;-74
2021/11/12 12:09:47;;;;;;;20.17;13.20;;;;;;;9.67;82.42;96301.56;5012504;28;20033;-74
2021/11/12 12:12:29;;;;;;;18.60;12.90;;;;;;;10.22;82.17;96297.84;5018528;28;20042;-73
2021/11/12 12:15:04;;;;;;;20.53;13.53;;;;;;;10.54;79.67;96295.41;5013078;28;20041;-73
2021/11/12 12:17:33;;;;;;;20.00;14.43;;;;;;;10.52;79.05;96286.03;4999122;28;20137;-74
2021/11/12 12:21:04;;;;;;;19.27;13.67;;;;;;;11.01;77.21;96284.41;5017074;28;20102;-74
2021/11/12 13:18:34;;;;;;;20.67;15.90;;;;;;;10.03;81.35;96257.66;5022545;28;20037;-73
2021/11/12 13:26:02;;;;;;;24.13;17.77;;;;;;;9.12;88.66;96210.72;5023728;28;20033;-73
2021/11/12 13:28:28;;;;;;;24.13;17.53;;;;;;;9.23;87.21;96216.72;5031999;28;20033;-73
2021/11/12 13:31:03;;;;;;;21.63;16.53;;;;;;;9.03;87.75;96208.19;5021052;28;20025;-73
2021/11/12 13:33:44;;;;;;;22.43;15.43;;;;;;;8.79;88.19;96216.66;5019039;28;20102;-72
2021/11/12 13:36:28;;;;;;;23.23;16.37;;;;;;;8.63;88.07;96206.81;5032030;28;20052;-73
2021/11/12 13:39:18;;;;;;;23.13;15.37;;;;;;;8.68;88.02;96202.75;5010898;28;20427;-74
2021/11/12 13:41:55;;;;;;;20.60;14.80;;;;;;;9.12;85.48;96202.00;5020635;28;20032;-74
2021/11/12 13:44:24;;;;;;;45.93;31.03;;;;;;;9.08;85.27;96209.38;5042213;28;20504;-74
2021/11/12 13:46:52;;;;;;;18.93;13.27;;;;;;;8.86;86.04;96196.72;5018432;28;20025;-74
2021/11/12 13:49:43;;;;;;;18.33;14.27;;;;;;;8.34;88.29;96201.69;5030602;28;20108;-75
2021/11/12 13:52:13;;;;;;;20.97;13.63;;;;;;;8.46;87.83;96197.94;5032846;28;20113;-73
2021/11/12 13:54:52;;;;;;;19.47;13.53;;;;;;;8.78;85.96;96201.88;5020139;28;20135;-73
2021/11/12 13:57:21;;;;;;;19.17;13.80;;;;;;;8.82;85.76;96200.59;5013386;28;20433;-74
2021/11/12 13:59:59;;;;;;;21.03;13.63;;;;;;;8.83;85.80;96200.47;5032180;28;20025;-74
2021/11/12 14:02:26;;;;;;;18.03;13.17;;;;;;;8.38;87.81;96196.03;5040272;28;20041;-73
2021/11/12 14:04:52;;;;;;;16.83;12.97;;;;;;;8.42;87.25;96194.78;5010785;28;20112;-74
2021/11/12 14:07:22;;;;;;;17.13;12.47;;;;;;;8.22;89.07;96198.47;5037516;28;20131;-74
2021/11/12 14:10:06;;;;;;;18.50;13.10;;;;;;;8.36;90.10;96199.75;5010688;28;20638;-74
2021/11/12 14:12:32;;;;;;;19.50;13.60;;;;;;;8.34;90.01;96196.44;5029047;28;20076;-72
2021/11/12 14:15:17;;;;;;;21.17;14.83;;;;;;;8.17;91.10;96196.25;5018885;28;20030;-73
2021/11/12 14:18:02;;;;;;;20.87;15.17;;;;;;;7.88;92.97;96195.53;5035765;28;20037;-73
2021/11/12 14:20:30;;;;;;;19.87;14.67;;;;;;;8.16;91.47;96184.13;5021432;28;20056;-73
2021/11/12 14:26:02;;;;;;;19.70;14.73;;;;;;;7.77;93.37;96204.41;5034380;28;20478;-72
2021/11/12 14:28:41;;;;;;;21.87;14.50;;;;;;;7.90;92.88;96189.19;5047361;28;20035;-73
2021/11/12 14:36:33;;;;;;;23.07;14.50;;;;;;;7.56;95.15;96176.63;5025964;28;20087;-74
2021/11/12 14:45:13;;;;;;;20.83;15.07;;;;;;;7.22;98.12;96185.94;5032579;28;20119;-72
2021/11/12 14:50:32;;;;;;;21.00;15.43;;;;;;;7.03;99.78;96192.81;5030688;28;20036;-75
2021/11/12 14:53:31;;;;;;;21.50;15.80;;;;;;;6.87;100.00;96189.94;5012324;28;20061;-75
2021/11/12 14:56:24;;;;;;;23.70;17.20;;;;;;;6.70;100.00;96183.59;5016570;28;20124;-75
2021/11/12 14:59:07;;;;;;;19.27;14.57;;;;;;;6.60;100.00;96173.13;5033613;28;20049;-74
2021/11/12 15:01:35;;;;;;;19.53;15.07;;;;;;;6.40;100.00;96184.50;5022057;28;20032;-74
2021/11/12 15:04:02;;;;;;;20.07;14.97;;;;;;;6.47;100.00;96176.97;5017065;28;20026;-74
2021/11/12 15:06:28;;;;;;;21.03;16.03;;;;;;;6.22;100.00;96194.78;5045670;28;20071;-73
2021/11/12 15:09:17;;;;;;;25.07;17.20;;;;;;;6.06;100.00;96190.06;5037760;28;20478;-72
2021/11/12 15:11:44;;;;;;;22.17;15.23;;;;;;;6.02;100.00;96196.50;5010038;28;20199;-73
2021/11/12 15:14:12;;;;;;;22.83;17.53;;;;;;;6.01;100.00;96192.25;4996212;28;20901;-73
2021/11/12 15:16:40;;;;;;;22.90;16.47;;;;;;;5.93;100.00;96199.09;5027505;28;20037;-74
2021/11/12 15:19:08;;;;;;;19.53;15.37;;;;;;;5.96;100.00;96204.03;5035717;28;20047;-74
2021/11/12 15:21:56;;;;;;;23.77;16.53;;;;;;;5.81;100.00;96208.75;5021252;28;20564;-74
2021/11/12 15:32:12;;;;;;;22.93;16.53;;;;;;;5.75;100.00;96228.38;5021351;28;20043;-74
2021/11/12 15:34:48;;;;;;;24.53;18.33;;;;;;;5.64;100.00;96231.06;5035625;28;20037;-74
2021/11/12 15:37:30;;;;;;;23.00;16.97;;;;;;;5.62;100.00;96232.97;5018943;28;20048;-74
2021/11/12 15:40:01;;;;;;;23.13;16.17;;;;;;;5.47;100.00;96229.88;5028957;28;20034;-74
2021/11/12 15:58:40;;;;;;;21.73;17.33;;;;;;;4.81;100.00;96248.28;5033918;28;20025;-72
2021/11/12 16:12:03;;;;;;;26.53;18.07;;;;;;;4.40;100.00;96243.78;5037864;28;20033;-72
2021/11/12 16:14:52;;;;;;;43.67;24.13;;;;;;;4.40;100.00;96244.59;5013371;28;20112;-71
2021/11/12 16:25:16;;;;;;;23.47;15.87;;;;;;;3.72;100.00;96259.41;5032535;28;20036;-71
2021/11/12 16:27:48;;;;;;;23.70;17.53;;;;;;;3.77;100.00;96266.84;5011356;28;20048;-71
2021/11/12 16:30:18;;;;;;;26.47;17.93;;;;;;;3.75;100.00;96269.56;5043143;28;20060;-72
2021/11/12 16:32:48;;;;;;;24.33;17.27;;;;;;;3.66;100.00;96262.47;5034543;28;21433;-72
2021/11/12 16:35:18;;;;;;;45.33;20.90;;;;;;;3.64;100.00;96268.72;5035686;28;20029;-71
2021/11/12 16:37:47;;;;;;;24.43;17.67;;;;;;;3.73;100.00;96271.47;5019974;28;20532;-71
2021/11/12 16:53:27;;;;;;;37.17;23.00;;;;;;;3.33;100.00;96284.00;5002521;28;20033;-72
2021/11/12 17:14:19;;;;;;;80.07;25.43;;;;;;;2.99;100.00;96289.09;5039663;28;20465;-73
2021/11/12 21:47:04;;;;;;;26.93;18.47;;;;;;;0.46;100.00;96200.03;5014077;28;20463;-72
2021/11/12 21:49:30;;;;;;;25.80;18.00;;;;;;;0.33;100.00;96196.56;5023220;28;20852;-73
2021/11/12 21:51:58;;;;;;;26.63;16.73;;;;;;;0.26;100.00;96195.31;5034593;28;20477;-73
2021/11/12 21:54:27;;;;;;;24.40;16.70;;;;;;;0.22;100.00;96192.09;5032367;28;20063;-73
2021/11/12 21:56:55;;;;;;;24.93;17.13;;;;;;;0.15;100.00;96198.56;5012834;28;20879;-73
2021/11/12 21:59:22;;;;;;;24.53;16.47;;;;;;;0.17;100.00;96195.91;5026057;28;20468;-72
2021/11/12 22:01:49;;;;;;;26.13;16.47;;;;;;;0.13;100.00;96187.47;5019723;28;20455;-73